sensor_id;sensor_type;location;lat;lon;timestamp;pressure;altitude;pressure_sealevel;temperature
19282;BMP180;9774;52.034;5.342;2024-01-27T00:00:26;103211.00;;;8.30
19282;BMP180;9774;52.034;5.342;2024-01-27T00:02:53;103209.00;;;8.30
19282;BMP180;9774;52.034;5.342;2024-01-27T00:05:20;103207.00;;;8.30
19282;BMP180;9774;52.034;5.342;2024-01-27T00:07:49;103203.00;;;8.20
19282;BMP180;9774;52.034;5.342;2024-01-27T00:10:16;103213.00;;;8.30
19282;BMP180;9774;52.034;5.342;2024-01-27T00:12:44;103200.00;;;8.30
19282;BMP180;9774;52.034;5.342;2024-01-27T00:15:11;103214.00;;;8.30
19282;BMP180;9774;52.034;5.342;2024-01-27T00:17:38;103218.00;;;8.30
19282;BMP180;9774;52.034;5.342;2024-01-27T00:20:07;103215.00;;;8.20
19282;BMP180;9774;52.034;5.342;2024-01-27T00:22:34;103212.00;;;8.20
19282;BMP180;9774;52.034;5.342;2024-01-27T00:25:03;103213.00;;;8.20
19282;BMP180;9774;52.034;5.342;2024-01-27T00:27:30;103217.00;;;8.20
19282;BMP180;9774;52.034;5.342;2024-01-27T00:29:58;103223.00;;;8.20
19282;BMP180;9774;52.034;5.342;2024-01-27T00:32:25;103216.00;;;8.20
19282;BMP180;9774;52.034;5.342;2024-01-27T00:34:52;103217.00;;;8.20
19282;BMP180;9774;52.034;5.342;2024-01-27T00:37:19;103213.00;;;8.20
19282;BMP180;9774;52.034;5.342;2024-01-27T00:39:46;103216.00;;;8.10
19282;BMP180;9774;52.034;5.342;2024-01-27T00:42:15;103204.00;;;8.10
19282;BMP180;9774;52.034;5.342;2024-01-27T00:44:42;103205.00;;;8.10
19282;BMP180;9774;52.034;5.342;2024-01-27T00:47:09;103204.00;;;8.10
19282;BMP180;9774;52.034;5.342;2024-01-27T00:49:36;103208.00;;;8.10
19282;BMP180;9774;52.034;5.342;2024-01-27T00:52:03;103213.00;;;8.10
19282;BMP180;9774;52.034;5.342;2024-01-27T00:54:31;103222.00;;;8.10
19282;BMP180;9774;52.034;5.342;2024-01-27T00:56:58;103217.00;;;8.00
19282;BMP180;9774;52.034;5.342;2024-01-27T00:59:26;103215.00;;;8.00
19282;BMP180;9774;52.034;5.342;2024-01-27T01:01:53;103208.00;;;8.00
19282;BMP180;9774;52.034;5.342;2024-01-27T01:04:21;103214.00;;;8.00
19282;BMP180;9774;52.034;5.342;2024-01-27T01:06:48;103217.00;;;8.00
19282;BMP180;9774;52.034;5.342;2024-01-27T01:09:15;103218.00;;;8.00
19282;BMP180;9774;52.034;5.342;2024-01-27T01:11:42;103217.00;;;8.00
19282;BMP180;9774;52.034;5.342;2024-01-27T01:14:09;103211.00;;;8.00
19282;BMP180;9774;52.034;5.342;2024-01-27T01:16:38;103216.00;;;7.90
19282;BMP180;9774;52.034;5.342;2024-01-27T01:19:05;103215.00;;;7.90
19282;BMP180;9774;52.034;5.342;2024-01-27T01:21:32;103211.00;;;7.90
19282;BMP180;9774;52.034;5.342;2024-01-27T01:24:00;103213.00;;;7.90
19282;BMP180;9774;52.034;5.342;2024-01-27T01:26:27;103229.00;;;7.90
19282;BMP180;9774;52.034;5.342;2024-01-27T01:28:54;103227.00;;;7.90
19282;BMP180;9774;52.034;5.342;2024-01-27T01:31:21;103220.00;;;7.90
19282;BMP180;9774;52.034;5.342;2024-01-27T01:33:49;103223.00;;;7.80
19282;BMP180;9774;52.034;5.342;2024-01-27T01:36:16;103229.00;;;7.80
19282;BMP180;9774;52.034;5.342;2024-01-27T01:38:43;103223.00;;;7.80
19282;BMP180;9774;52.034;5.342;2024-01-27T01:41:11;103225.00;;;7.80
19282;BMP180;9774;52.034;5.342;2024-01-27T01:43:38;103222.00;;;7.80
19282;BMP180;9774;52.034;5.342;2024-01-27T01:46:06;103229.00;;;7.80
19282;BMP180;9774;52.034;5.342;2024-01-27T01:48:33;103215.00;;;7.80
19282;BMP180;9774;52.034;5.342;2024-01-27T01:51:02;103226.00;;;7.80
19282;BMP180;9774;52.034;5.342;2024-01-27T01:53:29;103232.00;;;7.70
19282;BMP180;9774;52.034;5.342;2024-01-27T01:55:57;103242.00;;;7.70
19282;BMP180;9774;52.034;5.342;2024-01-27T01:58:24;103224.00;;;7.70
19282;BMP180;9774;52.034;5.342;2024-01-27T02:00:51;103229.00;;;7.70
19282;BMP180;9774;52.034;5.342;2024-01-27T02:03:18;103242.00;;;7.70
19282;BMP180;9774;52.034;5.342;2024-01-27T02:05:45;103237.00;;;7.70
19282;BMP180;9774;52.034;5.342;2024-01-27T02:08:14;103231.00;;;7.70
19282;BMP180;9774;52.034;5.342;2024-01-27T02:10:41;103224.00;;;7.60
19282;BMP180;9774;52.034;5.342;2024-01-27T02:13:17;103235.00;;;7.50
19282;BMP180;9774;52.034;5.342;2024-01-27T02:15:45;103235.00;;;7.70
19282;BMP180;9774;52.034;5.342;2024-01-27T02:18:12;103231.00;;;7.60
19282;BMP180;9774;52.034;5.342;2024-01-27T02:20:39;103229.00;;;7.60
19282;BMP180;9774;52.034;5.342;2024-01-27T02:23:06;103235.00;;;7.60
19282;BMP180;9774;52.034;5.342;2024-01-27T02:25:35;103232.00;;;7.60
19282;BMP180;9774;52.034;5.342;2024-01-27T02:28:02;103233.00;;;7.60
19282;BMP180;9774;52.034;5.342;2024-01-27T02:30:30;103226.00;;;7.60
19282;BMP180;9774;52.034;5.342;2024-01-27T02:32:57;103224.00;;;7.60
19282;BMP180;9774;52.034;5.342;2024-01-27T02:35:25;103235.00;;;7.60
19282;BMP180;9774;52.034;5.342;2024-01-27T02:37:52;103236.00;;;7.60
19282;BMP180;9774;52.034;5.342;2024-01-27T02:40:19;103234.00;;;7.50
19282;BMP180;9774;52.034;5.342;2024-01-27T02:42:48;103231.00;;;7.50
19282;BMP180;9774;52.034;5.342;2024-01-27T02:45:15;103237.00;;;7.50
19282;BMP180;9774;52.034;5.342;2024-01-27T02:47:42;103246.00;;;7.50
19282;BMP180;9774;52.034;5.342;2024-01-27T02:50:10;103235.00;;;7.50
19282;BMP180;9774;52.034;5.342;2024-01-27T02:52:37;103247.00;;;7.50
19282;BMP180;9774;52.034;5.342;2024-01-27T02:55:05;103239.00;;;7.50
19282;BMP180;9774;52.034;5.342;2024-01-27T02:57:32;103229.00;;;7.50
19282;BMP180;9774;52.034;5.342;2024-01-27T03:00:00;103231.00;;;7.40
19282;BMP180;9774;52.034;5.342;2024-01-27T03:02:28;103238.00;;;7.40
19282;BMP180;9774;52.034;5.342;2024-01-27T03:04:55;103238.00;;;7.40
19282;BMP180;9774;52.034;5.342;2024-01-27T03:07:22;103240.00;;;7.40
19282;BMP180;9774;52.034;5.342;2024-01-27T03:09:49;103241.00;;;7.40
19282;BMP180;9774;52.034;5.342;2024-01-27T03:12:16;103239.00;;;7.40
19282;BMP180;9774;52.034;5.342;2024-01-27T03:14:44;103236.00;;;7.40
19282;BMP180;9774;52.034;5.342;2024-01-27T03:17:13;103244.00;;;7.40
19282;BMP180;9774;52.034;5.342;2024-01-27T03:19:40;103254.00;;;7.40
19282;BMP180;9774;52.034;5.342;2024-01-27T03:22:07;103242.00;;;7.40
19282;BMP180;9774;52.034;5.342;2024-01-27T03:24:34;103235.00;;;7.30
19282;BMP180;9774;52.034;5.342;2024-01-27T03:27:01;103226.00;;;7.30
19282;BMP180;9774;52.034;5.342;2024-01-27T03:29:28;103233.00;;;7.30
19282;BMP180;9774;52.034;5.342;2024-01-27T03:31:55;103246.00;;;7.30
19282;BMP180;9774;52.034;5.342;2024-01-27T03:34:24;103242.00;;;7.30
19282;BMP180;9774;52.034;5.342;2024-01-27T03:36:53;103237.00;;;7.30
19282;BMP180;9774;52.034;5.342;2024-01-27T03:39:20;103238.00;;;7.30
19282;BMP180;9774;52.034;5.342;2024-01-27T03:41:47;103239.00;;;7.30
19282;BMP180;9774;52.034;5.342;2024-01-27T03:44:14;103239.00;;;7.30
19282;BMP180;9774;52.034;5.342;2024-01-27T03:46:41;103241.00;;;7.30
19282;BMP180;9774;52.034;5.342;2024-01-27T03:49:08;103246.00;;;7.30
19282;BMP180;9774;52.034;5.342;2024-01-27T03:51:36;103241.00;;;7.30
19282;BMP180;9774;52.034;5.342;2024-01-27T03:54:03;103249.00;;;7.30
19282;BMP180;9774;52.034;5.342;2024-01-27T03:56:30;103245.00;;;7.20
19282;BMP180;9774;52.034;5.342;2024-01-27T03:58:57;103244.00;;;7.20
19282;BMP180;9774;52.034;5.342;2024-01-27T04:01:24;103251.00;;;7.20
19282;BMP180;9774;52.034;5.342;2024-01-27T04:03:51;103252.00;;;7.20
19282;BMP180;9774;52.034;5.342;2024-01-27T04:06:18;103248.00;;;7.20
19282;BMP180;9774;52.034;5.342;2024-01-27T04:08:47;103261.00;;;7.20
19282;BMP180;9774;52.034;5.342;2024-01-27T04:11:20;103253.00;;;7.20
19282;BMP180;9774;52.034;5.342;2024-01-27T04:13:49;103248.00;;;7.20
19282;BMP180;9774;52.034;5.342;2024-01-27T04:16:17;103255.00;;;7.20
19282;BMP180;9774;52.034;5.342;2024-01-27T04:18:44;103254.00;;;7.20
19282;BMP180;9774;52.034;5.342;2024-01-27T04:21:11;103253.00;;;7.20
19282;BMP180;9774;52.034;5.342;2024-01-27T04:23:38;103241.00;;;7.20
19282;BMP180;9774;52.034;5.342;2024-01-27T04:26:06;103248.00;;;7.10
19282;BMP180;9774;52.034;5.342;2024-01-27T04:28:35;103253.00;;;7.10
19282;BMP180;9774;52.034;5.342;2024-01-27T04:31:02;103246.00;;;7.10
19282;BMP180;9774;52.034;5.342;2024-01-27T04:33:29;103238.00;;;7.10
19282;BMP180;9774;52.034;5.342;2024-01-27T04:35:56;103243.00;;;7.10
19282;BMP180;9774;52.034;5.342;2024-01-27T04:38:23;103252.00;;;7.10
19282;BMP180;9774;52.034;5.342;2024-01-27T04:40:51;103261.00;;;7.10
19282;BMP180;9774;52.034;5.342;2024-01-27T04:43:20;103269.00;;;7.10
19282;BMP180;9774;52.034;5.342;2024-01-27T04:45:48;103269.00;;;7.10
19282;BMP180;9774;52.034;5.342;2024-01-27T04:48:15;103269.00;;;7.10
19282;BMP180;9774;52.034;5.342;2024-01-27T04:50:43;103268.00;;;7.10
19282;BMP180;9774;52.034;5.342;2024-01-27T04:53:10;103264.00;;;7.10
19282;BMP180;9774;52.034;5.342;2024-01-27T04:55:37;103270.00;;;7.10
19282;BMP180;9774;52.034;5.342;2024-01-27T04:58:06;103257.00;;;7.10
19282;BMP180;9774;52.034;5.342;2024-01-27T05:00:35;103266.00;;;7.10
19282;BMP180;9774;52.034;5.342;2024-01-27T05:03:02;103259.00;;;7.10
19282;BMP180;9774;52.034;5.342;2024-01-27T05:05:32;103262.00;;;7.10
19282;BMP180;9774;52.034;5.342;2024-01-27T05:07:59;103260.00;;;7.10
19282;BMP180;9774;52.034;5.342;2024-01-27T05:10:26;103263.00;;;7.00
19282;BMP180;9774;52.034;5.342;2024-01-27T05:12:53;103258.00;;;7.10
19282;BMP180;9774;52.034;5.342;2024-01-27T05:15:21;103273.00;;;7.00
19282;BMP180;9774;52.034;5.342;2024-01-27T05:17:50;103262.00;;;7.00
19282;BMP180;9774;52.034;5.342;2024-01-27T05:20:18;103254.00;;;7.00
19282;BMP180;9774;52.034;5.342;2024-01-27T05:22:45;103251.00;;;7.00
19282;BMP180;9774;52.034;5.342;2024-01-27T05:25:12;103253.00;;;7.00
19282;BMP180;9774;52.034;5.342;2024-01-27T05:27:39;103252.00;;;7.00
19282;BMP180;9774;52.034;5.342;2024-01-27T05:30:08;103243.00;;;7.00
19282;BMP180;9774;52.034;5.342;2024-01-27T05:32:35;103236.00;;;7.00
19282;BMP180;9774;52.034;5.342;2024-01-27T05:35:05;103239.00;;;7.00
19282;BMP180;9774;52.034;5.342;2024-01-27T05:37:32;103233.00;;;7.00
19282;BMP180;9774;52.034;5.342;2024-01-27T05:39:59;103225.00;;;6.90
19282;BMP180;9774;52.034;5.342;2024-01-27T05:42:26;103237.00;;;6.90
19282;BMP180;9774;52.034;5.342;2024-01-27T05:44:53;103234.00;;;7.00
19282;BMP180;9774;52.034;5.342;2024-01-27T05:47:20;103241.00;;;7.00
19282;BMP180;9774;52.034;5.342;2024-01-27T05:49:47;103244.00;;;6.90
19282;BMP180;9774;52.034;5.342;2024-01-27T05:52:16;103235.00;;;6.90
19282;BMP180;9774;52.034;5.342;2024-01-27T05:54:43;103243.00;;;6.90
19282;BMP180;9774;52.034;5.342;2024-01-27T05:57:10;103238.00;;;6.90
19282;BMP180;9774;52.034;5.342;2024-01-27T05:59:37;103235.00;;;6.90
19282;BMP180;9774;52.034;5.342;2024-01-27T06:02:04;103230.00;;;6.90
19282;BMP180;9774;52.034;5.342;2024-01-27T06:04:31;103232.00;;;6.90
19282;BMP180;9774;52.034;5.342;2024-01-27T06:06:59;103232.00;;;6.90
19282;BMP180;9774;52.034;5.342;2024-01-27T06:09:27;103235.00;;;6.90
19282;BMP180;9774;52.034;5.342;2024-01-27T06:11:54;103236.00;;;6.90
19282;BMP180;9774;52.034;5.342;2024-01-27T06:14:21;103236.00;;;6.90
19282;BMP180;9774;52.034;5.342;2024-01-27T06:16:49;103244.00;;;6.90
19282;BMP180;9774;52.034;5.342;2024-01-27T06:19:17;103238.00;;;6.90
19282;BMP180;9774;52.034;5.342;2024-01-27T06:21:44;103232.00;;;6.80
19282;BMP180;9774;52.034;5.342;2024-01-27T06:24:11;103231.00;;;6.80
19282;BMP180;9774;52.034;5.342;2024-01-27T06:26:39;103236.00;;;6.80
19282;BMP180;9774;52.034;5.342;2024-01-27T06:29:06;103236.00;;;6.80
19282;BMP180;9774;52.034;5.342;2024-01-27T06:31:33;103240.00;;;6.80
19282;BMP180;9774;52.034;5.342;2024-01-27T06:34:00;103243.00;;;6.80
19282;BMP180;9774;52.034;5.342;2024-01-27T06:36:27;103248.00;;;6.80
19282;BMP180;9774;52.034;5.342;2024-01-27T06:38:54;103240.00;;;6.80
19282;BMP180;9774;52.034;5.342;2024-01-27T06:41:22;103237.00;;;6.80
19282;BMP180;9774;52.034;5.342;2024-01-27T06:43:52;103235.00;;;6.80
19282;BMP180;9774;52.034;5.342;2024-01-27T06:46:19;103236.00;;;6.80
19282;BMP180;9774;52.034;5.342;2024-01-27T06:48:47;103237.00;;;6.80
19282;BMP180;9774;52.034;5.342;2024-01-27T06:51:15;103235.00;;;6.80
19282;BMP180;9774;52.034;5.342;2024-01-27T06:53:44;103241.00;;;6.80
19282;BMP180;9774;52.034;5.342;2024-01-27T06:56:16;103255.00;;;6.80
19282;BMP180;9774;52.034;5.342;2024-01-27T06:58:43;103253.00;;;6.80
19282;BMP180;9774;52.034;5.342;2024-01-27T07:01:13;103260.00;;;6.70
19282;BMP180;9774;52.034;5.342;2024-01-27T07:03:40;103261.00;;;6.80
19282;BMP180;9774;52.034;5.342;2024-01-27T07:06:07;103258.00;;;6.80
19282;BMP180;9774;52.034;5.342;2024-01-27T07:08:34;103265.00;;;6.80
19282;BMP180;9774;52.034;5.342;2024-01-27T07:11:03;103265.00;;;6.80
19282;BMP180;9774;52.034;5.342;2024-01-27T07:13:37;103261.00;;;6.80
19282;BMP180;9774;52.034;5.342;2024-01-27T07:16:06;103272.00;;;6.80
19282;BMP180;9774;52.034;5.342;2024-01-27T07:18:36;103277.00;;;6.80
19282;BMP180;9774;52.034;5.342;2024-01-27T07:21:03;103276.00;;;6.80
19282;BMP180;9774;52.034;5.342;2024-01-27T07:23:30;103280.00;;;6.80
19282;BMP180;9774;52.034;5.342;2024-01-27T07:25:57;103285.00;;;6.80
19282;BMP180;9774;52.034;5.342;2024-01-27T07:28:29;103284.00;;;6.80
19282;BMP180;9774;52.034;5.342;2024-01-27T07:30:56;103286.00;;;6.80
19282;BMP180;9774;52.034;5.342;2024-01-27T07:33:23;103288.00;;;6.80
19282;BMP180;9774;52.034;5.342;2024-01-27T07:35:51;103296.00;;;6.80
19282;BMP180;9774;52.034;5.342;2024-01-27T07:38:19;103295.00;;;6.80
19282;BMP180;9774;52.034;5.342;2024-01-27T07:40:47;103294.00;;;6.80
19282;BMP180;9774;52.034;5.342;2024-01-27T07:43:18;103303.00;;;6.80
19282;BMP180;9774;52.034;5.342;2024-01-27T07:45:46;103289.00;;;6.80
19282;BMP180;9774;52.034;5.342;2024-01-27T07:48:14;103289.00;;;6.80
19282;BMP180;9774;52.034;5.342;2024-01-27T07:50:43;103301.00;;;6.80
19282;BMP180;9774;52.034;5.342;2024-01-27T07:53:18;103304.00;;;6.80
19282;BMP180;9774;52.034;5.342;2024-01-27T07:55:46;103303.00;;;6.90
19282;BMP180;9774;52.034;5.342;2024-01-27T07:58:19;103305.00;;;6.90
19282;BMP180;9774;52.034;5.342;2024-01-27T08:00:47;103309.00;;;6.90
19282;BMP180;9774;52.034;5.342;2024-01-27T08:03:14;103311.00;;;6.90
19282;BMP180;9774;52.034;5.342;2024-01-27T08:05:42;103315.00;;;7.00
19282;BMP180;9774;52.034;5.342;2024-01-27T08:08:09;103306.00;;;7.00
19282;BMP180;9774;52.034;5.342;2024-01-27T08:10:38;103301.00;;;7.00
19282;BMP180;9774;52.034;5.342;2024-01-27T08:13:06;103304.00;;;7.10
19282;BMP180;9774;52.034;5.342;2024-01-27T08:15:33;103301.00;;;7.10
19282;BMP180;9774;52.034;5.342;2024-01-27T08:18:00;103292.00;;;7.10
19282;BMP180;9774;52.034;5.342;2024-01-27T08:20:27;103289.00;;;7.20
19282;BMP180;9774;52.034;5.342;2024-01-27T08:22:54;103307.00;;;7.20
19282;BMP180;9774;52.034;5.342;2024-01-27T08:25:23;103302.00;;;7.20
19282;BMP180;9774;52.034;5.342;2024-01-27T08:27:53;103305.00;;;7.30
19282;BMP180;9774;52.034;5.342;2024-01-27T08:30:21;103299.00;;;7.30
19282;BMP180;9774;52.034;5.342;2024-01-27T08:32:49;103303.00;;;7.40
19282;BMP180;9774;52.034;5.342;2024-01-27T08:35:17;103303.00;;;7.40
19282;BMP180;9774;52.034;5.342;2024-01-27T08:37:46;103308.00;;;7.50
19282;BMP180;9774;52.034;5.342;2024-01-27T08:40:15;103300.00;;;7.50
19282;BMP180;9774;52.034;5.342;2024-01-27T08:42:44;103290.00;;;7.60
19282;BMP180;9774;52.034;5.342;2024-01-27T08:45:18;103291.00;;;7.60
19282;BMP180;9774;52.034;5.342;2024-01-27T08:47:47;103290.00;;;7.70
19282;BMP180;9774;52.034;5.342;2024-01-27T08:50:16;103290.00;;;7.70
19282;BMP180;9774;52.034;5.342;2024-01-27T08:52:43;103295.00;;;7.80
19282;BMP180;9774;52.034;5.342;2024-01-27T08:55:12;103303.00;;;7.80
19282;BMP180;9774;52.034;5.342;2024-01-27T08:57:40;103309.00;;;7.90
19282;BMP180;9774;52.034;5.342;2024-01-27T09:00:10;103316.00;;;7.90
19282;BMP180;9774;52.034;5.342;2024-01-27T09:02:39;103321.00;;;8.00
19282;BMP180;9774;52.034;5.342;2024-01-27T09:05:06;103317.00;;;8.10
19282;BMP180;9774;52.034;5.342;2024-01-27T09:07:34;103311.00;;;8.10
19282;BMP180;9774;52.034;5.342;2024-01-27T09:10:01;103318.00;;;8.20
19282;BMP180;9774;52.034;5.342;2024-01-27T09:12:28;103313.00;;;8.20
19282;BMP180;9774;52.034;5.342;2024-01-27T09:14:55;103323.00;;;8.30
19282;BMP180;9774;52.034;5.342;2024-01-27T09:17:22;103331.00;;;8.40
19282;BMP180;9774;52.034;5.342;2024-01-27T09:19:51;103338.00;;;8.40
19282;BMP180;9774;52.034;5.342;2024-01-27T09:22:18;103339.00;;;8.50
19282;BMP180;9774;52.034;5.342;2024-01-27T09:24:45;103339.00;;;8.50
19282;BMP180;9774;52.034;5.342;2024-01-27T09:27:12;103335.00;;;8.60
19282;BMP180;9774;52.034;5.342;2024-01-27T09:29:39;103336.00;;;8.60
19282;BMP180;9774;52.034;5.342;2024-01-27T09:32:06;103342.00;;;8.70
19282;BMP180;9774;52.034;5.342;2024-01-27T09:34:33;103344.00;;;8.80
19282;BMP180;9774;52.034;5.342;2024-01-27T09:37:02;103352.00;;;8.80
19282;BMP180;9774;52.034;5.342;2024-01-27T09:39:29;103356.00;;;8.90
19282;BMP180;9774;52.034;5.342;2024-01-27T09:41:57;103357.00;;;8.90
19282;BMP180;9774;52.034;5.342;2024-01-27T09:44:25;103358.00;;;9.00
19282;BMP180;9774;52.034;5.342;2024-01-27T09:46:53;103361.00;;;9.00
19282;BMP180;9774;52.034;5.342;2024-01-27T09:49:21;103367.00;;;9.00
19282;BMP180;9774;52.034;5.342;2024-01-27T09:51:48;103366.00;;;9.10
19282;BMP180;9774;52.034;5.342;2024-01-27T09:54:17;103374.00;;;9.10
19282;BMP180;9774;52.034;5.342;2024-01-27T09:56:46;103376.00;;;9.20
19282;BMP180;9774;52.034;5.342;2024-01-27T09:59:15;103376.00;;;9.30
19282;BMP180;9774;52.034;5.342;2024-01-27T10:01:45;103392.00;;;9.30
19282;BMP180;9774;52.034;5.342;2024-01-27T10:04:13;103408.00;;;9.40
19282;BMP180;9774;52.034;5.342;2024-01-27T10:06:41;103403.00;;;9.50
19282;BMP180;9774;52.034;5.342;2024-01-27T10:09:08;103393.00;;;9.50
19282;BMP180;9774;52.034;5.342;2024-01-27T10:11:39;103386.00;;;9.50
19282;BMP180;9774;52.034;5.342;2024-01-27T10:14:08;103387.00;;;9.60
19282;BMP180;9774;52.034;5.342;2024-01-27T10:16:41;103383.00;;;9.60
19282;BMP180;9774;52.034;5.342;2024-01-27T10:19:15;103384.00;;;9.70
19282;BMP180;9774;52.034;5.342;2024-01-27T10:21:43;103385.00;;;9.80
19282;BMP180;9774;52.034;5.342;2024-01-27T10:24:10;103382.00;;;9.80
19282;BMP180;9774;52.034;5.342;2024-01-27T10:26:39;103389.00;;;9.90
19282;BMP180;9774;52.034;5.342;2024-01-27T10:29:06;103394.00;;;9.90
19282;BMP180;9774;52.034;5.342;2024-01-27T10:31:34;103396.00;;;10.00
19282;BMP180;9774;52.034;5.342;2024-01-27T10:34:02;103396.00;;;10.00
19282;BMP180;9774;52.034;5.342;2024-01-27T10:36:39;103411.00;;;10.00
19282;BMP180;9774;52.034;5.342;2024-01-27T10:39:17;103410.00;;;10.10
19282;BMP180;9774;52.034;5.342;2024-01-27T10:41:48;103410.00;;;10.20
19282;BMP180;9774;52.034;5.342;2024-01-27T10:44:18;103410.00;;;10.30
19282;BMP180;9774;52.034;5.342;2024-01-27T10:46:47;103410.00;;;10.30
19282;BMP180;9774;52.034;5.342;2024-01-27T10:49:16;103397.00;;;10.40
19282;BMP180;9774;52.034;5.342;2024-01-27T10:51:46;103395.00;;;10.50
19282;BMP180;9774;52.034;5.342;2024-01-27T10:54:23;103389.00;;;10.50
19282;BMP180;9774;52.034;5.342;2024-01-27T10:56:56;103380.00;;;10.60
19282;BMP180;9774;52.034;5.342;2024-01-27T10:59:27;103377.00;;;10.70
19282;BMP180;9774;52.034;5.342;2024-01-27T11:01:54;103380.00;;;10.80
19282;BMP180;9774;52.034;5.342;2024-01-27T11:04:24;103380.00;;;10.80
19282;BMP180;9774;52.034;5.342;2024-01-27T11:06:53;103375.00;;;10.90
19282;BMP180;9774;52.034;5.342;2024-01-27T11:09:21;103365.00;;;11.00
19282;BMP180;9774;52.034;5.342;2024-01-27T11:11:49;103364.00;;;11.00
19282;BMP180;9774;52.034;5.342;2024-01-27T11:14:18;103364.00;;;11.10
19282;BMP180;9774;52.034;5.342;2024-01-27T11:16:45;103375.00;;;11.20
19282;BMP180;9774;52.034;5.342;2024-01-27T11:19:13;103377.00;;;11.30
19282;BMP180;9774;52.034;5.342;2024-01-27T11:21:40;103373.00;;;11.40
19282;BMP180;9774;52.034;5.342;2024-01-27T11:24:15;103379.00;;;11.40
19282;BMP180;9774;52.034;5.342;2024-01-27T11:26:43;103378.00;;;11.50
19282;BMP180;9774;52.034;5.342;2024-01-27T11:29:10;103376.00;;;11.50
19282;BMP180;9774;52.034;5.342;2024-01-27T11:31:46;103378.00;;;11.60
19282;BMP180;9774;52.034;5.342;2024-01-27T11:34:14;103374.00;;;11.70
19282;BMP180;9774;52.034;5.342;2024-01-27T11:36:44;103363.00;;;11.70
19282;BMP180;9774;52.034;5.342;2024-01-27T11:39:26;103363.00;;;11.70
19282;BMP180;9774;52.034;5.342;2024-01-27T11:42:04;103367.00;;;11.80
19282;BMP180;9774;52.034;5.342;2024-01-27T11:44:34;103367.00;;;11.90
19282;BMP180;9774;52.034;5.342;2024-01-27T11:47:05;103367.00;;;12.00
19282;BMP180;9774;52.034;5.342;2024-01-27T11:49:33;103361.00;;;12.10
19282;BMP180;9774;52.034;5.342;2024-01-27T11:52:00;103348.00;;;12.10
19282;BMP180;9774;52.034;5.342;2024-01-27T11:54:27;103355.00;;;12.20
19282;BMP180;9774;52.034;5.342;2024-01-27T11:56:54;103351.00;;;12.20
19282;BMP180;9774;52.034;5.342;2024-01-27T11:59:21;103355.00;;;12.20
19282;BMP180;9774;52.034;5.342;2024-01-27T12:01:49;103354.00;;;12.30
19282;BMP180;9774;52.034;5.342;2024-01-27T12:04:18;103351.00;;;12.40
19282;BMP180;9774;52.034;5.342;2024-01-27T12:06:48;103352.00;;;12.40
19282;BMP180;9774;52.034;5.342;2024-01-27T12:09:15;103353.00;;;12.50
19282;BMP180;9774;52.034;5.342;2024-01-27T12:11:43;103357.00;;;12.50
19282;BMP180;9774;52.034;5.342;2024-01-27T12:14:12;103348.00;;;12.60
19282;BMP180;9774;52.034;5.342;2024-01-27T12:16:39;103343.00;;;12.70
19282;BMP180;9774;52.034;5.342;2024-01-27T12:19:10;103347.00;;;12.70
19282;BMP180;9774;52.034;5.342;2024-01-27T12:21:38;103342.00;;;12.80
19282;BMP180;9774;52.034;5.342;2024-01-27T12:24:16;103338.00;;;12.90
19282;BMP180;9774;52.034;5.342;2024-01-27T12:26:45;103333.00;;;12.90
19282;BMP180;9774;52.034;5.342;2024-01-27T12:29:12;103329.00;;;13.00
19282;BMP180;9774;52.034;5.342;2024-01-27T12:31:39;103328.00;;;13.10
19282;BMP180;9774;52.034;5.342;2024-01-27T12:34:07;103328.00;;;13.10
19282;BMP180;9774;52.034;5.342;2024-01-27T12:36:42;103334.00;;;13.10
19282;BMP180;9774;52.034;5.342;2024-01-27T12:39:10;103337.00;;;13.20
19282;BMP180;9774;52.034;5.342;2024-01-27T12:41:37;103331.00;;;13.30
19282;BMP180;9774;52.034;5.342;2024-01-27T12:44:06;103334.00;;;13.30
19282;BMP180;9774;52.034;5.342;2024-01-27T12:46:33;103343.00;;;13.40
19282;BMP180;9774;52.034;5.342;2024-01-27T12:49:00;103342.00;;;13.50
19282;BMP180;9774;52.034;5.342;2024-01-27T12:51:27;103349.00;;;13.50
19282;BMP180;9774;52.034;5.342;2024-01-27T12:53:55;103339.00;;;13.50
19282;BMP180;9774;52.034;5.342;2024-01-27T12:56:23;103344.00;;;13.60
19282;BMP180;9774;52.034;5.342;2024-01-27T12:58:50;103340.00;;;13.70
19282;BMP180;9774;52.034;5.342;2024-01-27T13:01:18;103336.00;;;13.70
19282;BMP180;9774;52.034;5.342;2024-01-27T13:03:45;103331.00;;;13.80
19282;BMP180;9774;52.034;5.342;2024-01-27T13:06:12;103331.00;;;13.80
19282;BMP180;9774;52.034;5.342;2024-01-27T13:08:39;103334.00;;;13.90
19282;BMP180;9774;52.034;5.342;2024-01-27T13:11:08;103335.00;;;14.00
19282;BMP180;9774;52.034;5.342;2024-01-27T13:13:35;103331.00;;;14.10
19282;BMP180;9774;52.034;5.342;2024-01-27T13:16:03;103327.00;;;14.20
19282;BMP180;9774;52.034;5.342;2024-01-27T13:18:30;103335.00;;;14.30
19282;BMP180;9774;52.034;5.342;2024-01-27T13:20:57;103316.00;;;14.50
19282;BMP180;9774;52.034;5.342;2024-01-27T13:23:24;103324.00;;;14.70
19282;BMP180;9774;52.034;5.342;2024-01-27T13:25:51;103328.00;;;15.00
19282;BMP180;9774;52.034;5.342;2024-01-27T13:28:19;103324.00;;;15.20
19282;BMP180;9774;52.034;5.342;2024-01-27T13:30:46;103324.00;;;15.40
19282;BMP180;9774;52.034;5.342;2024-01-27T13:33:15;103322.00;;;15.60
19282;BMP180;9774;52.034;5.342;2024-01-27T13:35:42;103313.00;;;15.80
19282;BMP180;9774;52.034;5.342;2024-01-27T13:38:12;103315.00;;;16.00
19282;BMP180;9774;52.034;5.342;2024-01-27T13:40:39;103312.00;;;16.20
19282;BMP180;9774;52.034;5.342;2024-01-27T13:43:07;103309.00;;;16.40
19282;BMP180;9774;52.034;5.342;2024-01-27T13:45:35;103320.00;;;16.70
19282;BMP180;9774;52.034;5.342;2024-01-27T13:48:03;103315.00;;;16.90
19282;BMP180;9774;52.034;5.342;2024-01-27T13:50:30;103307.00;;;17.10
19282;BMP180;9774;52.034;5.342;2024-01-27T13:52:57;103312.00;;;17.40
19282;BMP180;9774;52.034;5.342;2024-01-27T13:55:24;103316.00;;;17.60
19282;BMP180;9774;52.034;5.342;2024-01-27T13:57:52;103321.00;;;17.80
19282;BMP180;9774;52.034;5.342;2024-01-27T14:00:20;103321.00;;;18.00
19282;BMP180;9774;52.034;5.342;2024-01-27T14:02:48;103311.00;;;18.00
19282;BMP180;9774;52.034;5.342;2024-01-27T14:05:18;103314.00;;;18.10
19282;BMP180;9774;52.034;5.342;2024-01-27T14:07:45;103324.00;;;18.20
19282;BMP180;9774;52.034;5.342;2024-01-27T14:10:13;103316.00;;;18.20
19282;BMP180;9774;52.034;5.342;2024-01-27T14:12:40;103324.00;;;18.30
19282;BMP180;9774;52.034;5.342;2024-01-27T14:15:08;103313.00;;;18.30
19282;BMP180;9774;52.034;5.342;2024-01-27T14:17:35;103321.00;;;18.30
19282;BMP180;9774;52.034;5.342;2024-01-27T14:20:05;103323.00;;;18.10
19282;BMP180;9774;52.034;5.342;2024-01-27T14:22:35;103312.00;;;18.00